createdAt,value
2023-05-10T00:00:41.233Z,100291.91
2023-05-10T00:03:43.151Z,100305.16
2023-05-10T00:06:44.889Z,100293.66
2023-05-10T00:09:47.861Z,100298.06
2023-05-10T00:12:49.601Z,100294.50
2023-05-10T00:15:51.574Z,100298.91
2023-05-10T00:18:53.536Z,100298.03
2023-05-10T00:21:55.201Z,100301.56
2023-05-10T00:24:58.276Z,100290.03
2023-05-10T00:28:00.431Z,100292.63
2023-05-10T00:31:02.052Z,100282.00
2023-05-10T00:34:03.781Z,100286.41
2023-05-10T00:37:05.407Z,100278.38
2023-05-10T00:40:09.338Z,100277.50
2023-05-10T00:43:11.013Z,100272.16
2023-05-10T00:46:13.174Z,100275.69
2023-05-10T00:49:15.001Z,100268.63
2023-05-10T00:52:16.816Z,100265.91
2023-05-10T00:55:20.791Z,100261.53
2023-05-10T00:58:22.447Z,100266.00
2023-05-10T01:01:24.605Z,100268.69
2023-05-10T01:04:26.568Z,100274.91
2023-05-10T01:07:28.437Z,100268.72
2023-05-10T01:10:32.029Z,100258.97
2023-05-10T01:13:34.613Z,100266.94
2023-05-10T01:16:39.498Z,100269.63
2023-05-10T01:19:41.676Z,100267.81
2023-05-10T01:23:28.904Z,100266.97
2023-05-10T01:26:51.167Z,100259.00
2023-05-10T01:30:14.751Z,100258.97
2023-05-10T01:33:31.176Z,100242.22
2023-05-10T01:36:37.700Z,100254.53
2023-05-10T01:39:46.844Z,100251.00
2023-05-10T01:42:51.962Z,100259.88
2023-05-10T01:46:01.991Z,100249.25
2023-05-10T01:49:10.069Z,100244.84
2023-05-10T01:52:14.950Z,100241.25
2023-05-10T01:55:19.014Z,100249.31
2023-05-10T01:58:23.929Z,100251.09
2023-05-10T02:01:27.618Z,100252.91
2023-05-10T02:04:31.396Z,100244.97
2023-05-10T02:07:34.815Z,100231.69
2023-05-10T02:10:37.246Z,100242.34
2023-05-10T02:13:40.094Z,100235.28
2023-05-10T02:16:42.310Z,100232.66
2023-05-10T02:19:48.152Z,100236.19
2023-05-10T02:22:51.604Z,100236.22
2023-05-10T02:25:55.811Z,100241.56
2023-05-10T02:28:58.888Z,100235.41
2023-05-10T02:32:01.427Z,100231.88
2023-05-10T02:35:05.708Z,100231.91
2023-05-10T02:38:09.567Z,100237.22
2023-05-10T02:41:13.085Z,100231.88
2023-05-10T02:44:16.238Z,100226.63
2023-05-10T02:47:18.899Z,100228.38
2023-05-10T02:50:23.147Z,100226.59
2023-05-10T02:53:32.000Z,100237.19
2023-05-10T02:56:37.518Z,100223.06
2023-05-10T02:59:39.375Z,100231.88
2023-05-10T03:02:41.086Z,100236.31
2023-05-10T03:05:44.107Z,100240.72
2023-05-10T03:08:46.439Z,100240.72
2023-05-10T03:11:55.970Z,100238.94
2023-05-10T03:15:04.496Z,100234.56
2023-05-10T03:18:10.392Z,100238.97
2023-05-10T03:21:15.256Z,100227.47
2023-05-10T03:24:19.953Z,100235.44
2023-05-10T03:27:23.684Z,100231.88
2023-05-10T03:30:25.789Z,100234.53
2023-05-10T03:33:27.597Z,100232.81
2023-05-10T03:36:30.550Z,100230.13
2023-05-10T03:39:32.188Z,100224.84
2023-05-10T03:42:33.838Z,100231.88
2023-05-10T03:45:35.668Z,100231.03
2023-05-10T03:48:42.360Z,100238.09
2023-05-10T03:51:45.572Z,100231.00
2023-05-10T03:54:47.389Z,100227.47
2023-05-10T03:57:49.124Z,100224.81
2023-05-10T04:00:51.884Z,100232.75
2023-05-10T04:03:53.868Z,100229.22
2023-05-10T04:06:58.180Z,100231.00
2023-05-10T04:09:59.936Z,100236.28
2023-05-10T04:13:01.631Z,100235.41
2023-05-10T04:16:03.529Z,100228.31
2023-05-10T04:19:05.232Z,100240.66
2023-05-10T04:22:08.200Z,100240.66
2023-05-10T04:25:10.150Z,100243.25
2023-05-10T04:28:11.749Z,100247.69
2023-05-10T04:31:13.432Z,100245.88
2023-05-10T04:34:15.141Z,100246.69
2023-05-10T04:37:18.180Z,100248.41
2023-05-10T04:40:19.741Z,100243.06
2023-05-10T04:43:21.457Z,100251.91
2023-05-10T04:46:23.190Z,100252.84
2023-05-10T04:49:25.188Z,100250.22
2023-05-10T04:52:28.189Z,100248.47
2023-05-10T04:55:29.936Z,100258.19
2023-05-10T04:58:31.704Z,100245.75
2023-05-10T05:01:33.650Z,100243.94
2023-05-10T05:04:35.331Z,100252.75
2023-05-10T05:07:38.551Z,100251.88
2023-05-10T05:10:40.576Z,100247.41
2023-05-10T05:13:42.214Z,100250.03
2023-05-10T05:16:43.998Z,100246.50
2023-05-10T05:19:45.924Z,100248.28
2023-05-10T05:22:49.172Z,100247.34
2023-05-10T05:25:50.802Z,100252.66
2023-05-10T05:28:52.509Z,100251.78
2023-05-10T05:31:55.607Z,100257.00
2023-05-10T05:34:57.480Z,100249.88
2023-05-10T05:38:00.498Z,100256.91
2023-05-10T05:41:02.189Z,100258.63
2023-05-10T05:44:03.837Z,100263.09
2023-05-10T05:47:06.282Z,100256.81
2023-05-10T05:50:08.600Z,100271.75
2023-05-10T05:53:11.629Z,100271.66
2023-05-10T05:56:13.321Z,100268.94
2023-05-10T05:59:14.932Z,100272.41
2023-05-10T06:02:16.880Z,100273.97
2023-05-10T06:05:18.875Z,100273.03
2023-05-10T06:08:21.951Z,100264.19
2023-05-10T06:11:23.627Z,100272.03
2023-05-10T06:14:25.380Z,100284.38
2023-05-10T06:17:27.062Z,100280.81
2023-05-10T06:20:29.197Z,100282.44
2023-05-10T06:23:32.259Z,100269.00
2023-05-10T06:26:34.405Z,100280.44
2023-05-10T06:29:36.078Z,100289.94
2023-05-10T06:32:37.980Z,100290.72
2023-05-10T06:35:39.635Z,100287.88
2023-05-10T06:38:42.702Z,100275.38
2023-05-10T06:41:44.568Z,100290.56
2023-05-10T06:44:46.204Z,100284.59
2023-05-10T06:47:48.166Z,100293.53
2023-05-10T06:50:49.856Z,100294.91
2023-05-10T06:53:52.931Z,100292.88
2023-05-10T06:56:54.811Z,100289.38
2023-05-10T06:59:56.709Z,100284.38
2023-05-10T07:03:01.855Z,100284.38
2023-05-10T07:06:32.927Z,100298.28
2023-05-10T07:09:36.731Z,100265.31
2023-05-10T07:12:38.856Z,100290.69
2023-05-10T07:15:40.840Z,100286.25
2023-05-10T07:18:43.062Z,100280.69
2023-05-10T07:21:44.791Z,100285.78
2023-05-10T07:24:47.878Z,100286.09
2023-05-10T07:27:49.807Z,100287.81
2023-05-10T07:30:51.596Z,100282.41
2023-05-10T07:34:09.929Z,100269.72
2023-05-10T07:37:11.691Z,100286.47
2023-05-10T07:40:14.723Z,100270.84
2023-05-10T07:43:16.380Z,100276.38
2023-05-10T07:46:18.462Z,100279.59
2023-05-10T07:49:20.155Z,100277.75
2023-05-10T07:52:22.805Z,100275.19
2023-05-10T07:55:26.041Z,100283.19
2023-05-10T07:58:28.058Z,100281.09
2023-05-10T08:01:31.860Z,100284.75
2023-05-10T08:04:33.496Z,100273.63
2023-05-10T08:07:36.960Z,100277.88
2023-05-10T08:10:40.507Z,100273.34
2023-05-10T08:13:42.298Z,100270.97
2023-05-10T08:16:43.973Z,100274.34
2023-05-10T08:19:45.759Z,100281.47
2023-05-10T08:22:52.553Z,100270.13
2023-05-10T08:25:58.714Z,100271.81
2023-05-10T08:29:00.429Z,100267.47
2023-05-10T08:32:02.175Z,100254.06
2023-05-10T08:35:04.202Z,100261.03
2023-05-10T08:38:06.196Z,100261.94
2023-05-10T08:41:10.045Z,100257.81
2023-05-10T08:44:11.832Z,100269.69
2023-05-10T08:47:16.844Z,100263.03
2023-05-10T08:50:21.194Z,100254.56
2023-05-10T08:53:25.713Z,100251.84
2023-05-10T08:56:29.159Z,100250.41
2023-05-10T08:59:31.143Z,100255.69
2023-05-10T09:02:34.080Z,100249.09
2023-05-10T09:05:37.347Z,100259.22
2023-05-10T09:08:39.099Z,100245.50
2023-05-10T09:11:45.646Z,100251.59
2023-05-10T09:14:47.770Z,100244.25
2023-05-10T09:17:50.862Z,100254.69
2023-05-10T09:20:52.483Z,100252.88
2023-05-10T09:23:54.139Z,100252.25
2023-05-10T09:26:58.212Z,100245.63
2023-05-10T09:29:59.869Z,100246.28
2023-05-10T09:33:01.973Z,100240.38
2023-05-10T09:36:08.496Z,100233.06
2023-05-10T09:39:10.124Z,100241.66
2023-05-10T09:42:13.182Z,100238.59
2023-05-10T09:45:15.410Z,100227.91
2023-05-10T09:48:17.381Z,100228.13
2023-05-10T09:51:21.939Z,100222.03
2023-05-10T09:54:23.594Z,100231.56
2023-05-10T09:57:26.549Z,100221.19
2023-05-10T10:00:29.159Z,100215.19
2023-05-10T10:03:31.395Z,100214.31
2023-05-10T10:06:37.394Z,100223.25
2023-05-10T10:09:40.095Z,100214.72
2023-05-10T10:12:45.048Z,100218.03
2023-05-10T10:15:47.398Z,100221.53
2023-05-10T10:18:50.273Z,100208.78
2023-05-10T10:21:52.006Z,100206.91
2023-05-10T10:24:55.398Z,100214.38
2023-05-10T10:28:10.145Z,100200.34
2023-05-10T10:31:24.795Z,100202.19
2023-05-10T10:34:28.715Z,100205.03
2023-05-10T10:37:44.864Z,100193.84
2023-05-10T10:40:46.576Z,100191.72
2023-05-10T10:43:49.647Z,100190.78
2023-05-10T10:47:02.676Z,100180.97
2023-05-10T10:50:06.762Z,100182.53
2023-05-10T10:53:12.185Z,100184.59
2023-05-10T10:56:14.304Z,100162.22
2023-05-10T10:59:27.847Z,100168.88
2023-05-10T11:02:44.329Z,100165.91
2023-05-10T11:05:46.184Z,100167.75
2023-05-10T11:08:48.105Z,100158.22
2023-05-10T11:11:51.705Z,100159.00
2023-05-10T11:14:58.405Z,100154.41
2023-05-10T11:18:00.633Z,100157.56
2023-05-10T11:21:03.671Z,100159.25
2023-05-10T11:24:15.057Z,100148.16
2023-05-10T11:27:17.038Z,100156.41
2023-05-10T11:30:20.213Z,100158.88
2023-05-10T11:33:22.110Z,100147.28
2023-05-10T11:36:25.786Z,100151.56
2023-05-10T11:39:28.537Z,100147.22
2023-05-10T11:42:30.283Z,100142.25
2023-05-10T11:45:34.544Z,100139.75
2023-05-10T11:48:36.300Z,100144.78
2023-05-10T11:51:37.921Z,100140.72
2023-05-10T11:54:46.149Z,100146.56
2023-05-10T11:57:48.233Z,100134.22
2023-05-10T12:00:51.406Z,100139.97
2023-05-10T12:03:55.366Z,100141.75
2023-05-10T12:06:57.419Z,100123.31
2023-05-10T12:10:10.129Z,100128.06
2023-05-10T12:13:12.827Z,100108.16
2023-05-10T12:16:17.458Z,100133.28
2023-05-10T12:19:19.971Z,100126.72
2023-05-10T12:22:22.045Z,100125.88
2023-05-10T12:25:25.283Z,100129.09
2023-05-10T12:31:58.340Z,100120.75
2023-05-10T12:35:00.264Z,100122.06
2023-05-10T12:38:01.900Z,100123.56
2023-05-10T12:41:04.943Z,100118.47
2023-05-10T12:44:06.576Z,100117.94
2023-05-10T12:47:09.799Z,100106.38
2023-05-10T12:50:11.301Z,100102.22
2023-05-10T12:53:14.756Z,100095.22
2023-05-10T12:56:16.672Z,100102.09
2023-05-10T12:59:18.533Z,100093.53
2023-05-10T13:02:21.516Z,100089.69
2023-05-10T13:05:23.211Z,100091.00
2023-05-10T13:08:25.164Z,100088.31
2023-05-10T13:11:27.015Z,100091.72
2023-05-10T13:14:28.931Z,100092.28
2023-05-10T13:17:33.565Z,100076.88
2023-05-10T13:20:35.801Z,100078.53
2023-05-10T13:23:37.361Z,100071.88
2023-05-10T13:26:38.923Z,100072.69
2023-05-10T13:29:40.899Z,100061.59
2023-05-10T13:32:44.825Z,100064.72
2023-05-10T13:35:46.271Z,100052.53
2023-05-10T13:38:47.622Z,100055.16
2023-05-10T13:41:49.286Z,100044.66
2023-05-10T13:44:51.075Z,100041.44
2023-05-10T13:47:54.113Z,100042.88
2023-05-10T13:50:55.707Z,100043.25
2023-05-10T13:53:57.338Z,100036.75
2023-05-10T13:56:58.939Z,100037.81
2023-05-10T14:00:00.520Z,100039.91
2023-05-10T14:03:03.548Z,100040.59
2023-05-10T14:06:05.254Z,100028.03
2023-05-10T14:09:06.671Z,100027.66
2023-05-10T14:12:08.053Z,100023.25
2023-05-10T14:15:10.401Z,100025.75
2023-05-10T14:18:13.407Z,100028.44
2023-05-10T14:21:15.082Z,100018.28
2023-05-10T14:24:16.734Z,100019.50
2023-05-10T14:27:18.329Z,100021.66
2023-05-10T14:30:19.980Z,100024.06
2023-05-10T14:33:23.046Z,100027.47
2023-05-10T14:36:24.629Z,100016.50
2023-05-10T14:39:26.459Z,100023.09
2023-05-10T14:42:28.658Z,100015.47
2023-05-10T14:45:30.368Z,100025.69
2023-05-10T14:48:33.810Z,100010.09
2023-05-10T14:51:35.427Z,100020.75
2023-05-10T14:54:37.015Z,100015.00
2023-05-10T14:57:39.056Z,100019.50
2023-05-10T15:00:41.473Z,100006.34
2023-05-10T15:03:44.995Z,100007.28
2023-05-10T15:06:47.117Z,100003.34
2023-05-10T15:09:48.722Z,100017.03
2023-05-10T15:12:51.200Z,100010.41
2023-05-10T15:15:53.099Z,100013.72
2023-05-10T15:18:56.440Z,100020.25
2023-05-10T15:21:58.066Z,100018.00
2023-05-10T15:25:00.950Z,100015.59
2023-05-10T15:28:02.776Z,100008.59
2023-05-10T15:31:06.838Z,100013.22
2023-05-10T15:34:09.829Z,100012.41
2023-05-10T15:37:11.670Z,99987.44
2023-05-10T15:40:13.440Z,99995.19
2023-05-10T15:43:15.076Z,99993.53
2023-05-10T15:46:16.779Z,99988.47
2023-05-10T15:49:19.715Z,99980.75
2023-05-10T15:52:21.409Z,99992.19
2023-05-10T15:55:23.060Z,99974.47
2023-05-10T15:58:24.742Z,100001.88
2023-05-10T16:01:26.596Z,99987.75
2023-05-10T16:04:29.673Z,99980.84
2023-05-10T16:07:33.917Z,99995.97
2023-05-10T16:10:35.678Z,99992.34
2023-05-10T16:13:37.632Z,99992.97
2023-05-10T16:16:39.884Z,99988.03
2023-05-10T16:19:43.065Z,99994.28
2023-05-10T16:22:44.746Z,99991.25
2023-05-10T16:25:46.918Z,99992.66
2023-05-10T16:28:48.997Z,99995.56
2023-05-10T16:31:50.654Z,99996.13
2023-05-10T16:34:53.656Z,100003.41
2023-05-10T16:37:55.744Z,100008.28
2023-05-10T16:40:57.442Z,99997.78
2023-05-10T16:43:59.356Z,100000.88
2023-05-10T16:47:00.979Z,100013.81
2023-05-10T16:50:05.620Z,100012.25
2023-05-10T16:53:07.552Z,100018.72
2023-05-10T16:56:10.501Z,100018.09
2023-05-10T16:59:12.269Z,100019.19
2023-05-10T17:02:14.782Z,100021.91
2023-05-10T17:05:18.223Z,100014.09
2023-05-10T17:08:20.299Z,100019.56
2023-05-10T17:11:21.961Z,100017.00
2023-05-10T17:14:23.605Z,100024.09
2023-05-10T17:17:25.443Z,100027.81
2023-05-10T17:20:28.541Z,100026.25
2023-05-10T17:23:30.338Z,100011.66
2023-05-10T17:26:32.202Z,100029.50
2023-05-10T17:29:33.905Z,100031.56
2023-05-10T17:32:35.765Z,100030.84
2023-05-10T17:35:38.830Z,100032.13
2023-05-10T17:38:40.566Z,100037.72
2023-05-10T17:41:42.261Z,100045.38
2023-05-10T17:44:44.250Z,100036.00
2023-05-10T17:47:46.345Z,100043.47
2023-05-10T17:50:51.582Z,100042.19
2023-05-10T17:53:53.271Z,100035.38
2023-05-10T17:56:54.866Z,100042.16
2023-05-10T17:59:56.753Z,100046.81
2023-05-10T18:02:58.630Z,100045.53
2023-05-10T18:06:02.668Z,100049.47
2023-05-10T18:09:04.938Z,100053.31
2023-05-10T18:12:07.211Z,100054.47
2023-05-10T18:15:09.676Z,100065.38
2023-05-10T18:18:11.848Z,100056.63
2023-05-10T18:21:14.829Z,100055.97
2023-05-10T18:24:23.022Z,100060.53
2023-05-10T18:27:31.855Z,100072.19
2023-05-10T18:30:33.849Z,100068.00
2023-05-10T18:33:35.548Z,100063.78
2023-05-10T18:36:39.962Z,100071.88
2023-05-10T18:39:42.351Z,100059.53
2023-05-10T18:42:44.130Z,100077.47
2023-05-10T18:45:45.805Z,100081.19
2023-05-10T18:48:47.789Z,100084.91
2023-05-10T18:51:51.008Z,100082.38
2023-05-10T18:54:53.058Z,100091.28
2023-05-10T18:57:55.831Z,100078.13
2023-05-10T19:00:57.515Z,100095.78
2023-05-10T19:03:59.959Z,100094.13
2023-05-10T19:07:06.579Z,100095.16
2023-05-10T19:10:09.100Z,100101.41
2023-05-10T19:13:11.318Z,100100.66
2023-05-10T19:16:15.089Z,100096.34
2023-05-10T19:19:19.831Z,100107.84
2023-05-10T19:22:36.070Z,100113.31
2023-05-10T19:25:45.978Z,100108.88
2023-05-10T19:28:47.757Z,100110.84
2023-05-10T19:31:49.754Z,100103.78
2023-05-10T19:34:52.172Z,100108.31
2023-05-10T19:37:55.447Z,100114.66
2023-05-10T19:40:59.023Z,100110.09
2023-05-10T19:44:00.872Z,100113.81
2023-05-10T19:47:02.873Z,100099.72
2023-05-10T19:50:06.173Z,100107.78
2023-05-10T19:53:09.948Z,100099.91
2023-05-10T19:56:13.872Z,100099.09
2023-05-10T19:59:16.218Z,100104.47
2023-05-10T20:02:17.984Z,100064.84
2023-05-10T20:05:20.054Z,100101.94
2023-05-10T20:08:23.708Z,100087.78
2023-05-10T20:11:25.663Z,100102.94
2023-05-10T20:14:28.093Z,100097.66
2023-05-10T20:17:30.531Z,100104.81
2023-05-10T20:20:35.458Z,100105.81
2023-05-10T20:23:39.249Z,100112.06
2023-05-10T20:26:40.957Z,100105.06
2023-05-10T20:29:42.664Z,100106.88
2023-05-10T20:32:44.962Z,100112.25
2023-05-10T20:35:47.424Z,100108.72
2023-05-10T20:38:50.586Z,100111.44
2023-05-10T20:41:52.334Z,100106.19
2023-05-10T20:44:54.037Z,100109.78
2023-05-10T20:47:55.817Z,100107.97
2023-05-10T20:50:57.947Z,100103.69
2023-05-10T20:54:01.456Z,100105.47
2023-05-10T20:57:03.207Z,100102.94
2023-05-10T21:00:05.044Z,100104.75
2023-05-10T21:03:06.578Z,100100.34
2023-05-10T21:06:08.473Z,100084.59
2023-05-10T21:09:11.451Z,100101.38
2023-05-10T21:12:13.393Z,100086.38
2023-05-10T21:15:15.077Z,100089.03
2023-05-10T21:18:16.818Z,100102.34
2023-05-10T21:21:18.607Z,100094.50
2023-05-10T21:24:21.665Z,100093.66
2023-05-10T21:27:23.284Z,100100.78
2023-05-10T21:30:25.266Z,100098.13
2023-05-10T21:33:27.272Z,100093.72
2023-05-10T21:36:28.958Z,100092.88
2023-05-10T21:39:32.240Z,100098.13
2023-05-10T21:42:34.162Z,100095.53
2023-05-10T21:45:35.859Z,100109.69
2023-05-10T21:48:37.797Z,100114.09
2023-05-10T21:51:39.460Z,100114.97
2023-05-10T21:54:42.476Z,100112.28
2023-05-10T21:57:44.310Z,100115.75
2023-05-10T22:00:46.003Z,100117.47
2023-05-10T22:03:47.664Z,100113.00
2023-05-10T22:06:49.285Z,100123.47
2023-05-10T22:09:52.305Z,100120.78
2023-05-10T22:12:53.977Z,100127.75
2023-05-10T22:15:55.697Z,100123.34
2023-05-10T22:18:57.491Z,100126.00
2023-05-10T22:21:59.179Z,100120.69
2023-05-10T22:25:02.184Z,100122.44
2023-05-10T22:28:03.911Z,100117.13
2023-05-10T22:31:09.385Z,100124.19
2023-05-10T22:37:40.349Z,100124.19
2023-05-10T22:40:43.400Z,100132.22
2023-05-10T22:43:45.049Z,100126.00
2023-05-10T22:46:49.009Z,100126.91
2023-05-10T22:49:51.698Z,100127.81
2023-05-10T22:52:53.417Z,100128.72
2023-05-10T22:55:56.618Z,100133.19
2023-05-10T22:58:58.428Z,100127.91
2023-05-10T23:02:00.168Z,100139.41
2023-05-10T23:05:01.930Z,100142.09
2023-05-10T23:08:03.588Z,100128.84
2023-05-10T23:11:06.599Z,100137.69
2023-05-10T23:14:08.283Z,100123.56
2023-05-10T23:17:09.917Z,100135.06
2023-05-10T23:20:12.911Z,100135.94
2023-05-10T23:23:14.835Z,100116.50
2023-05-10T23:26:18.373Z,100135.09
2023-05-10T23:29:20.573Z,100130.69
2023-05-10T23:32:22.471Z,100120.06
2023-05-10T23:35:24.294Z,100133.28
2023-05-10T23:38:26.041Z,100127.97
2023-05-10T23:41:29.318Z,100134.16
2023-05-10T23:44:30.953Z,100129.81
2023-05-10T23:47:32.610Z,100140.38
2023-05-10T23:50:34.315Z,100135.91
2023-05-10T23:53:35.984Z,100138.56
2023-05-10T23:56:39.297Z,100141.25
2023-05-10T23:59:40.929Z,100142.06
